createdAt,value
2023-02-11T00:00:43.205Z,29.49
2023-02-11T00:01:43.197Z,29.51
2023-02-11T00:02:44.173Z,29.51
2023-02-11T00:03:43.302Z,29.47
2023-02-11T00:04:43.158Z,29.49
2023-02-11T06:28:23.745Z,28.92
2023-02-11T06:29:23.665Z,28.94
2023-02-11T06:30:23.651Z,28.96
2023-02-11T06:31:23.779Z,29.04
2023-02-11T06:32:42.703Z,28.99
2023-02-11T06:33:23.631Z,29.07
2023-02-11T06:35:23.608Z,29.10
2023-02-11T06:36:23.597Z,29.17
2023-02-11T06:37:23.595Z,29.21
2023-02-11T06:38:23.582Z,29.18
2023-02-11T06:39:23.573Z,29.28
2023-02-11T06:40:23.560Z,29.38
2023-02-11T06:41:23.551Z,29.24
2023-02-11T06:43:23.554Z,29.42
2023-02-11T06:44:23.534Z,29.33
2023-02-11T06:45:23.515Z,29.43
2023-02-11T06:46:23.580Z,29.40
2023-02-11T06:48:23.508Z,29.56
2023-02-11T06:49:23.480Z,29.50
2023-02-11T06:50:23.471Z,29.52
2023-02-11T06:51:23.516Z,29.59
2023-02-11T06:52:23.459Z,29.55
2023-02-11T06:53:23.448Z,29.60
2023-02-11T06:54:23.437Z,29.65
2023-02-11T06:55:23.434Z,29.54
2023-02-11T06:56:23.419Z,29.66
2023-02-11T06:57:23.409Z,29.75
2023-02-11T06:58:23.419Z,29.72
2023-02-11T06:59:23.399Z,29.67
2023-02-11T07:00:23.386Z,29.78
2023-02-11T07:01:23.422Z,29.81
2023-02-11T07:02:23.366Z,29.67
2023-02-11T07:03:23.378Z,29.76
2023-02-11T07:04:23.353Z,29.85
2023-02-11T07:05:23.335Z,29.80
2023-02-11T07:06:23.335Z,29.75
2023-02-11T07:07:23.317Z,29.91
2023-02-11T07:08:23.310Z,29.93
2023-02-11T07:09:23.307Z,29.76
2023-02-11T07:10:23.292Z,29.85
2023-02-11T07:11:23.283Z,29.91
2023-02-11T07:12:23.270Z,29.92
2023-02-11T07:13:23.265Z,29.90
2023-02-11T07:14:23.262Z,29.96
2023-02-11T07:15:23.244Z,29.87
2023-02-11T07:16:23.344Z,29.94
2023-02-11T07:17:23.226Z,30.08
2023-02-11T07:18:23.217Z,30.09
2023-02-11T07:19:23.234Z,29.97
2023-02-11T07:20:23.211Z,29.99
2023-02-11T07:21:23.190Z,30.11
2023-02-11T07:22:23.181Z,30.09
2023-02-11T07:23:23.184Z,29.96
2023-02-11T07:24:23.168Z,30.12
2023-02-11T07:26:23.145Z,30.01
2023-02-11T07:27:23.140Z,30.05
2023-02-11T07:28:23.182Z,30.15
2023-02-11T07:29:23.119Z,30.13
2023-02-11T07:30:23.110Z,30.03
2023-02-11T07:31:23.359Z,30.21
2023-02-11T07:32:23.089Z,30.20
2023-02-11T07:33:23.092Z,30.05
2023-02-11T07:34:23.113Z,30.13
2023-02-11T07:35:23.088Z,30.19
2023-02-11T07:36:23.053Z,30.16
2023-02-11T07:37:23.047Z,30.01
2023-02-11T07:38:23.035Z,30.19
2023-02-11T07:39:23.058Z,30.27
2023-02-11T07:40:23.019Z,30.27
2023-02-11T07:41:23.007Z,30.18
2023-02-11T07:42:22.999Z,30.26
2023-02-11T07:43:22.991Z,30.37
2023-02-11T07:44:22.987Z,30.34
2023-02-11T07:45:22.972Z,30.28
2023-02-11T07:46:23.055Z,30.18
2023-02-11T07:47:22.960Z,30.32
2023-02-11T07:48:22.948Z,30.34
2023-02-11T07:49:22.936Z,30.27
2023-02-11T07:50:22.929Z,30.25
2023-02-11T07:51:22.943Z,30.38
2023-02-11T07:52:22.909Z,30.38
2023-02-11T07:53:22.907Z,30.27
2023-02-11T07:54:22.894Z,30.21
2023-02-11T07:55:22.881Z,30.31
2023-02-11T07:56:22.896Z,30.38
2023-02-11T07:57:22.863Z,30.36
2023-02-11T07:58:22.863Z,30.19
2023-02-11T07:59:22.852Z,30.32
2023-02-11T08:00:22.835Z,30.39
2023-02-11T08:01:22.924Z,30.37
2023-02-11T08:02:22.914Z,30.22
2023-02-11T08:03:22.813Z,30.31
2023-02-11T08:04:22.799Z,30.36
2023-02-11T08:05:22.791Z,30.33
2023-02-11T08:06:22.788Z,30.23
2023-02-11T08:07:22.795Z,30.31
2023-02-11T08:08:22.764Z,30.36
2023-02-11T08:09:22.756Z,30.37
2023-02-11T08:10:22.749Z,30.25
2023-02-11T08:11:22.732Z,30.40
2023-02-11T08:12:22.730Z,30.46
2023-02-11T08:13:22.715Z,30.40
2023-02-11T08:14:22.726Z,30.14
2023-02-11T08:15:22.702Z,30.31
2023-02-11T08:16:22.757Z,30.41
2023-02-11T08:17:22.688Z,30.33
2023-02-11T08:18:22.710Z,30.20
2023-02-11T08:19:22.660Z,30.36
2023-02-11T08:20:22.653Z,30.42
2023-02-11T08:21:22.668Z,30.43
2023-02-11T08:22:22.634Z,30.32
2023-02-11T08:23:22.649Z,30.39
2023-02-11T08:24:22.614Z,30.48
2023-02-11T08:25:22.605Z,30.44
2023-02-11T08:26:22.596Z,30.33
2023-02-11T08:27:23.144Z,30.27
2023-02-11T08:28:22.647Z,30.40
2023-02-11T08:29:22.578Z,30.42
2023-02-11T08:30:22.560Z,30.34
2023-02-11T08:31:22.708Z,30.33
2023-02-11T08:32:22.630Z,30.46
2023-02-11T08:33:22.533Z,30.51
2023-02-11T08:34:22.524Z,30.52
2023-02-11T08:35:22.514Z,30.44
2023-02-11T08:36:22.523Z,30.20
2023-02-11T08:37:22.505Z,30.37
2023-02-11T08:38:22.488Z,30.47
2023-02-11T08:39:22.573Z,30.39
2023-02-11T08:40:22.467Z,30.22
2023-02-11T08:41:22.465Z,30.39
2023-02-11T08:42:22.470Z,30.44
2023-02-11T08:43:22.444Z,30.38
2023-02-11T08:44:22.440Z,30.31
2023-02-11T08:45:22.426Z,30.26
2023-02-11T08:46:22.445Z,30.36
2023-02-11T08:47:22.409Z,30.36
2023-02-11T08:48:22.407Z,30.23
2023-02-11T08:49:22.439Z,30.30
2023-02-11T08:50:22.383Z,30.34
2023-02-11T08:51:22.373Z,30.19
2023-02-11T08:52:22.362Z,30.30
2023-02-11T08:53:22.370Z,30.39
2023-02-11T08:54:22.350Z,30.42
2023-02-11T08:55:22.366Z,30.33
2023-02-11T08:56:22.328Z,30.25
2023-02-11T08:57:22.319Z,30.38
2023-02-11T08:58:22.305Z,30.38
2023-02-11T08:59:22.295Z,30.39
2023-02-11T09:00:22.311Z,30.18
2023-02-11T09:01:23.081Z,30.36
2023-02-11T09:02:22.305Z,30.50
2023-02-11T09:03:22.301Z,30.43
2023-02-11T09:04:22.271Z,30.26
2023-02-11T09:05:22.250Z,30.33
2023-02-11T09:06:22.236Z,30.43
2023-02-11T09:07:22.226Z,30.41
2023-02-11T09:08:22.215Z,30.36
2023-02-11T09:11:22.216Z,30.41
2023-02-11T16:34:24.861Z,30.81
